Time;durP1;ratioP1;P1;durP2;ratioP2;P2;SDS_P1;SDS_P2;PMS_P1;PMS_P2;Temp;Humidity;BMP_temperature;BMP_pressure;BME280_temperature;BME280_humidity;BME280_pressure;Samples;Min_cycle;Max_cycle;Signal;HPM_P1;HPM_P2
2023/03/01 00:02:20;;;;;;;9.67;8.40;;;3.70;68.90;;;;;;5073213;28;20463;-58
2023/03/01 00:04:47;;;;;;;8.90;7.43;;;3.70;69.10;;;;;;5073640;28;20449;-58
2023/03/01 00:07:13;;;;;;;14.00;8.33;;;3.60;69.20;;;;;;5073288;28;20453;-58
2023/03/01 00:09:40;;;;;;;9.20;8.40;;;3.60;69.20;;;;;;5073054;28;20461;-58
2023/03/01 00:12:09;;;;;;;9.17;8.07;;;3.60;69.40;;;;;;5073164;28;20527;-58
2023/03/01 00:14:36;;;;;;;10.30;7.63;;;3.50;69.40;;;;;;5072845;28;20488;-57
2023/03/01 00:17:03;;;;;;;10.20;8.37;;;3.50;70.00;;;;;;5072888;28;20448;-58
2023/03/01 00:19:32;;;;;;;9.60;7.90;;;3.40;70.00;;;;;;5072936;28;20476;-58
2023/03/01 00:21:58;;;;;;;10.10;8.00;;;3.40;70.40;;;;;;5072771;28;20468;-58
2023/03/01 00:24:25;;;;;;;8.83;7.73;;;3.30;70.70;;;;;;5072934;28;20466;-58
2023/03/01 00:26:55;;;;;;;8.20;7.40;;;3.30;71.60;;;;;;5072912;28;20452;-58
2023/03/01 00:29:23;;;;;;;10.40;8.40;;;3.30;72.10;;;;;;5072984;28;20500;-58
2023/03/01 00:31:50;;;;;;;10.40;8.40;;;3.20;72.00;;;;;;5072544;28;20934;-58
2023/03/01 00:34:16;;;;;;;10.03;8.03;;;3.20;72.30;;;;;;5072463;28;20862;-58
2023/03/01 00:36:43;;;;;;;9.20;7.83;;;3.20;72.70;;;;;;5072816;28;20452;-58
2023/03/01 00:39:12;;;;;;;8.90;7.77;;;3.20;73.00;;;;;;5072751;28;20465;-58
2023/03/01 00:41:39;;;;;;;10.30;8.70;;;3.20;73.30;;;;;;5076299;28;21012;-58
2023/03/01 00:44:06;;;;;;;8.53;7.40;;;3.10;72.90;;;;;;5076532;28;20551;-58
2023/03/01 00:46:34;;;;;;;10.07;8.50;;;3.00;73.00;;;;;;5076474;28;20448;-58
2023/03/01 00:49:02;;;;;;;9.67;8.40;;;3.00;73.40;;;;;;5076383;28;20449;-58
2023/03/01 00:51:29;;;;;;;8.27;6.70;;;2.90;73.50;;;;;;5076133;28;20980;-58
2023/03/01 00:53:58;;;;;;;12.27;7.80;;;2.90;73.60;;;;;;5076361;28;20459;-58
2023/03/01 00:56:25;;;;;;;14.50;8.37;;;2.90;73.60;;;;;;5076037;28;20930;-58
2023/03/01 00:58:52;;;;;;;10.13;7.33;;;2.80;73.70;;;;;;5076627;28;20441;-58
2023/03/01 01:01:20;;;;;;;9.33;7.60;;;2.80;74.00;;;;;;5076185;28;20440;-58
2023/03/01 01:03:50;;;;;;;8.63;7.77;;;2.80;74.20;;;;;;5076433;28;20539;-58
2023/03/01 01:06:19;;;;;;;9.40;7.60;;;2.80;74.30;;;;;;5076477;28;20421;-58
2023/03/01 01:08:46;;;;;;;8.33;7.43;;;2.80;74.60;;;;;;5075932;28;20451;-58
2023/03/01 01:11:13;;;;;;;9.07;7.80;;;2.70;74.50;;;;;;5076144;28;20447;-58
2023/03/01 01:13:41;;;;;;;9.90;8.30;;;2.70;74.60;;;;;;5076111;28;20852;-58
2023/03/01 01:16:08;;;;;;;9.13;7.53;;;2.60;74.70;;;;;;5075902;28;20476;-58
2023/03/01 01:18:35;;;;;;;9.13;7.57;;;2.60;74.90;;;;;;5075820;28;20452;-57
2023/03/01 01:21:07;;;;;;;10.87;8.37;;;2.60;74.90;;;;;;5075820;28;20469;-58
2023/03/01 01:23:34;;;;;;;8.57;7.67;;;2.60;74.90;;;;;;5075903;28;20774;-58
2023/03/01 01:26:05;;;;;;;10.53;8.77;;;2.60;75.10;;;;;;5075851;28;20444;-58
2023/03/01 01:28:32;;;;;;;11.97;8.20;;;2.50;75.80;;;;;;5075565;28;20907;-58
2023/03/01 01:30:58;;;;;;;11.50;7.77;;;2.50;75.30;;;;;;5075698;28;20464;-58
2023/03/01 01:33:26;;;;;;;10.53;9.20;;;2.50;75.70;;;;;;5075768;28;20896;-58
2023/03/01 01:35:53;;;;;;;18.63;12.13;;;2.50;76.00;;;;;;5075709;28;20484;-58
2023/03/01 01:38:22;;;;;;;12.80;10.57;;;2.40;76.20;;;;;;5075728;28;20788;-58
2023/03/01 01:40:50;;;;;;;11.43;10.20;;;2.40;76.20;;;;;;5075505;28;20489;-58
2023/03/01 01:43:21;;;;;;;9.47;8.47;;;2.40;76.30;;;;;;5075510;28;20510;-58
2023/03/01 01:45:48;;;;;;;10.27;7.90;;;2.40;76.70;;;;;;5075437;28;20445;-58
2023/03/01 01:48:20;;;;;;;10.90;8.43;;;2.40;76.90;;;;;;5075371;28;20460;-58
2023/03/01 01:50:53;;;;;;;11.30;8.80;;;2.30;76.90;;;;;;5074636;28;20473;-58
2023/03/01 01:53:22;;;;;;;9.27;8.37;;;2.20;76.80;;;;;;5074881;28;20786;-58
2023/03/01 01:55:53;;;;;;;11.63;8.40;;;2.20;76.80;;;;;;5075179;28;20484;-58
2023/03/01 01:58:22;;;;;;;9.90;8.43;;;2.10;77.00;;;;;;5075232;28;20440;-58
2023/03/01 02:00:50;;;;;;;10.17;7.83;;;2.10;77.10;;;;;;5075051;28;20469;-58
2023/03/01 02:03:20;;;;;;;8.23;7.43;;;2.10;77.10;;;;;;5075128;28;20520;-58
2023/03/01 02:05:52;;;;;;;10.37;8.27;;;2.00;77.30;;;;;;5075092;28;20444;-57
2023/03/01 02:08:22;;;;;;;8.67;7.80;;;2.00;77.50;;;;;;5074990;28;20433;-58
2023/03/01 02:10:51;;;;;;;9.87;8.43;;;2.00;77.80;;;;;;5074921;28;20494;-57
2023/03/01 02:13:18;;;;;;;9.40;8.40;;;2.00;78.00;;;;;;5074804;28;20497;-58
2023/03/01 02:15:45;;;;;;;11.63;9.37;;;2.00;77.90;;;;;;5074485;28;20889;-58
2023/03/01 02:18:15;;;;;;;12.20;8.67;;;2.00;77.90;;;;;;5074833;28;20456;-58
2023/03/01 02:20:49;;;;;;;8.77;7.87;;;1.90;77.60;;;;;;5075142;28;20465;-58
2023/03/01 02:23:16;;;;;;;9.63;8.23;;;1.90;78.20;;;;;;5074387;28;20637;-58
2023/03/01 02:25:50;;;;;;;9.23;8.23;;;1.80;78.20;;;;;;5074637;28;20445;-58
2023/03/01 02:28:31;;;;;;;11.30;8.43;;;1.80;78.90;;;;;;5074567;28;20514;-58
2023/03/01 02:33:44;;;;;;;10.13;8.23;;;1.70;79.20;;;;;;5074206;28;20543;-58
2023/03/01 02:36:16;;;;;;;11.73;7.43;;;1.70;79.60;;;;;;5074069;28;21001;-58
2023/03/01 02:38:43;;;;;;;10.57;8.30;;;1.70;79.60;;;;;;5074143;28;20441;-57
2023/03/01 02:41:14;;;;;;;9.97;8.80;;;1.70;79.60;;;;;;5074583;28;20483;-57
2023/03/01 02:43:42;;;;;;;13.87;9.00;;;1.70;79.80;;;;;;5073972;28;20456;-57
2023/03/01 02:46:16;;;;;;;10.83;8.80;;;1.70;80.10;;;;;;5074178;28;20449;-58
2023/03/01 02:48:45;;;;;;;11.13;8.77;;;1.70;80.00;;;;;;5074122;28;20482;-58
2023/03/01 02:51:38;;;;;;;9.70;8.70;;;1.70;80.00;;;;;;5074187;28;20444;-57
2023/03/01 02:54:11;;;;;;;9.77;8.77;;;1.60;79.90;;;;;;5074072;28;20440;-57
2023/03/01 02:56:38;;;;;;;9.73;8.40;;;1.60;79.90;;;;;;5073718;28;20464;-56
2023/03/01 02:59:07;;;;;;;9.70;8.20;;;1.50;79.80;;;;;;5073898;28;20475;-56
2023/03/01 03:01:37;;;;;;;10.70;8.70;;;1.50;80.20;;;;;;5073912;28;20455;-56
2023/03/01 03:04:05;;;;;;;10.57;9.50;;;1.50;80.40;;;;;;5073472;28;20488;-56
2023/03/01 03:06:32;;;;;;;9.63;8.33;;;1.50;80.60;;;;;;5073833;28;20444;-56
2023/03/01 03:08:59;;;;;;;11.33;8.80;;;1.40;80.50;;;;;;5073696;28;20501;-56
2023/03/01 03:11:26;;;;;;;10.40;8.40;;;1.40;80.30;;;;;;5073769;28;20452;-57
2023/03/01 03:13:53;;;;;;;9.77;8.77;;;1.30;80.20;;;;;;5073377;28;20444;-57
2023/03/01 03:16:21;;;;;;;10.47;8.90;;;1.30;80.50;;;;;;5074162;28;20484;-57
2023/03/01 03:18:48;;;;;;;10.63;8.80;;;1.20;80.50;;;;;;5074092;28;20556;-57
2023/03/01 03:21:16;;;;;;;9.53;8.50;;;1.20;80.80;;;;;;5073470;28;20452;-57
2023/03/01 03:23:43;;;;;;;10.27;9.13;;;1.20;80.90;;;;;;5074139;28;20424;-57
2023/03/01 03:26:14;;;;;;;11.33;7.90;;;1.20;81.00;;;;;;5073576;28;20449;-57
2023/03/01 03:28:41;;;;;;;14.37;9.20;;;1.10;81.10;;;;;;5073564;28;20524;-57
2023/03/01 03:31:08;;;;;;;10.00;8.50;;;1.10;81.60;;;;;;5073468;28;20456;-57
2023/03/01 03:33:37;;;;;;;11.37;9.10;;;1.10;81.70;;;;;;5073470;28;20502;-57
2023/03/01 03:36:04;;;;;;;11.00;9.10;;;1.10;81.90;;;;;;5073533;28;20582;-57
2023/03/01 03:38:31;;;;;;;14.70;10.27;;;1.10;82.10;;;;;;5073462;28;20448;-56
2023/03/01 03:41:03;;;;;;;13.33;9.60;;;1.10;82.40;;;;;;5073515;28;20483;-56
2023/03/01 03:43:31;;;;;;;12.07;9.30;;;1.10;82.50;;;;;;5073939;28;20498;-56
2023/03/01 03:45:58;;;;;;;10.87;9.40;;;1.00;82.20;;;;;;5073647;28;20456;-56
2023/03/01 03:48:25;;;;;;;17.93;10.00;;;1.00;82.20;;;;;;5073519;28;20449;-56
2023/03/01 03:50:54;;;;;;;14.00;9.23;;;1.00;82.60;;;;;;5073007;28;20464;-57
2023/03/01 03:53:23;;;;;;;12.90;9.30;;;0.90;82.60;;;;;;5074062;28;20441;-57
2023/03/01 03:55:51;;;;;;;11.20;9.93;;;0.90;82.70;;;;;;5073190;28;20475;-57
2023/03/01 03:58:19;;;;;;;9.40;8.53;;;0.90;82.70;;;;;;5073239;28;20456;-57
2023/03/01 04:00:47;;;;;;;10.73;9.37;;;0.80;82.80;;;;;;5073171;28;20473;-57
2023/03/01 04:03:15;;;;;;;12.17;10.10;;;0.80;82.90;;;;;;5073222;28;20452;-57
2023/03/01 04:05:43;;;;;;;11.77;9.93;;;0.70;83.20;;;;;;5073122;28;20448;-57
2023/03/01 04:08:11;;;;;;;10.27;9.17;;;0.70;83.40;;;;;;5073200;28;20445;-57
2023/03/01 04:10:40;;;;;;;10.30;9.30;;;0.80;83.90;;;;;;5073063;28;20472;-56
2023/03/01 04:13:11;;;;;;;11.20;9.20;;;0.70;84.00;;;;;;5073111;28;20458;-57
2023/03/01 04:15:38;;;;;;;12.33;10.00;;;0.70;83.80;;;;;;5075946;28;20545;-57
2023/03/01 04:18:06;;;;;;;10.43;9.33;;;0.70;83.80;;;;;;5077086;28;20480;-57
2023/03/01 04:20:35;;;;;;;13.90;9.60;;;0.70;84.20;;;;;;5077092;28;20479;-56
2023/03/01 04:23:10;;;;;;;13.93;9.53;;;0.70;84.40;;;;;;5076654;28;20464;-57
2023/03/01 04:25:39;;;;;;;10.50;9.37;;;0.70;84.90;;;;;;5077106;28;20781;-57
2023/03/01 04:28:05;;;;;;;10.73;9.50;;;0.60;84.80;;;;;;5076890;28;20447;-57
2023/03/01 04:30:35;;;;;;;15.30;9.60;;;0.60;84.70;;;;;;5076871;28;20464;-57
2023/03/01 04:33:02;;;;;;;11.00;9.70;;;0.60;84.70;;;;;;5076832;28;20535;-57
2023/03/01 04:35:29;;;;;;;10.87;9.00;;;0.60;84.70;;;;;;5076660;28;20488;-57
2023/03/01 04:37:56;;;;;;;15.40;10.27;;;0.60;84.50;;;;;;5076660;28;20451;-57
2023/03/01 04:40:22;;;;;;;13.40;10.00;;;0.60;85.40;;;;;;5076618;28;20464;-57
2023/03/01 04:42:50;;;;;;;12.87;10.20;;;0.60;84.60;;;;;;5076626;28;20447;-57
2023/03/01 04:45:17;;;;;;;10.53;9.43;;;0.60;84.90;;;;;;5077502;28;20453;-57
2023/03/01 04:47:46;;;;;;;13.23;10.70;;;0.60;85.30;;;;;;5076264;28;20934;-57
2023/03/01 04:50:14;;;;;;;10.80;9.43;;;0.60;85.50;;;;;;5076411;28;20464;-57
2023/03/01 04:52:41;;;;;;;11.47;9.50;;;0.50;85.50;;;;;;5076094;28;20995;-57
2023/03/01 04:55:09;;;;;;;10.90;9.20;;;0.50;85.10;;;;;;5076347;28;20497;-57
2023/03/01 04:57:36;;;;;;;11.40;10.20;;;0.50;84.90;;;;;;5076344;28;20786;-57
2023/03/01 05:00:19;;;;;;;12.00;9.50;;;0.50;84.90;;;;;;5076271;28;20480;-57
2023/03/01 05:02:48;;;;;;;11.90;9.23;;;0.40;85.00;;;;;;5076289;28;20437;-57
2023/03/01 05:05:15;;;;;;;9.73;8.63;;;0.40;84.70;;;;;;5076212;28;20491;-57
2023/03/01 05:07:41;;;;;;;11.57;9.20;;;0.30;84.70;;;;;;5076148;28;20440;-57
2023/03/01 05:10:09;;;;;;;11.83;9.40;;;0.20;84.80;;;;;;5075738;28;20468;-57
2023/03/01 05:12:37;;;;;;;14.37;10.50;;;0.20;84.70;;;;;;5076117;28;20458;-57
2023/03/01 05:15:06;;;;;;;14.20;9.83;;;0.20;84.80;;;;;;5076009;28;20449;-57
2023/03/01 05:17:33;;;;;;;11.43;10.23;;;0.10;84.90;;;;;;5076036;28;20480;-57
2023/03/01 05:20:00;;;;;;;11.20;9.47;;;0.10;85.60;;;;;;5075890;28;20496;-57
2023/03/01 05:22:27;;;;;;;15.63;9.63;;;0.10;86.40;;;;;;5075616;28;20839;-57
2023/03/01 05:24:54;;;;;;;11.57;10.07;;;0.10;86.70;;;;;;5075855;28;20550;-57
2023/03/01 05:27:22;;;;;;;10.90;9.57;;;0.10;87.00;;;;;;5075485;28;20448;-57
2023/03/01 05:29:49;;;;;;;12.80;10.00;;;0.10;87.10;;;;;;5075383;28;20499;-57
2023/03/01 05:32:17;;;;;;;11.00;8.83;;;0.10;87.00;;;;;;5075687;28;20502;-57
2023/03/01 05:34:46;;;;;;;14.87;9.77;;;0.10;86.90;;;;;;5075338;28;20884;-57
2023/03/01 05:37:13;;;;;;;12.20;9.93;;;0.10;86.70;;;;;;5075221;28;21078;-57
2023/03/01 05:39:41;;;;;;;14.03;10.70;;;0.10;86.90;;;;;;5075531;28;20816;-57
2023/03/01 05:42:11;;;;;;;10.87;9.00;;;0.10;86.70;;;;;;5075553;28;20447;-57
2023/03/01 05:44:38;;;;;;;12.40;9.93;;;0.10;86.70;;;;;;5076377;28;20485;-57
2023/03/01 05:47:05;;;;;;;13.43;10.03;;;0.10;87.20;;;;;;5075425;28;20455;-57
2023/03/01 05:49:34;;;;;;;11.43;10.23;;;0.00;87.30;;;;;;5075326;28;20479;-57
2023/03/01 05:52:01;;;;;;;12.50;10.50;;;0.00;87.30;;;;;;5075357;28;21002;-57
2023/03/01 05:54:27;;;;;;;12.30;9.30;;;0.00;87.40;;;;;;5075234;28;20524;-57
2023/03/01 05:56:54;;;;;;;10.83;9.73;;;-0.10;87.50;;;;;;5075183;28;20484;-57
2023/03/01 05:59:21;;;;;;;12.73;9.97;;;-0.10;87.60;;;;;;5075176;28;20464;-57
2023/03/01 06:01:48;;;;;;;13.10;10.50;;;-0.10;87.70;;;;;;5075174;28;20494;-57
2023/03/01 06:04:14;;;;;;;13.03;10.27;;;-0.10;87.70;;;;;;5074786;28;20815;-57
2023/03/01 06:06:42;;;;;;;10.70;9.60;;;-0.10;87.80;;;;;;5075089;28;20504;-57
2023/03/01 06:09:09;;;;;;;11.33;9.83;;;-0.10;87.90;;;;;;5075460;28;20476;-57
2023/03/01 06:11:37;;;;;;;10.73;9.63;;;-0.10;87.90;;;;;;5075012;28;20444;-57
2023/03/01 06:14:06;;;;;;;12.40;9.83;;;-0.10;87.90;;;;;;5074775;28;20451;-57
2023/03/01 06:16:32;;;;;;;11.57;10.37;;;-0.10;87.70;;;;;;5074642;28;20487;-57
2023/03/01 06:18:59;;;;;;;11.30;10.10;;;-0.10;87.50;;;;;;5074799;28;20455;-57
2023/03/01 06:21:26;;;;;;;13.17;10.23;;;-0.10;87.20;;;;;;5074691;28;20466;-57
2023/03/01 06:23:54;;;;;;;13.93;11.13;;;-0.10;87.10;;;;;;5074635;28;20949;-57
2023/03/01 06:26:21;;;;;;;12.23;10.23;;;-0.10;87.80;;;;;;5074817;28;20442;-57
2023/03/01 06:28:47;;;;;;;12.13;9.70;;;-0.10;88.00;;;;;;5074714;28;20574;-56
2023/03/01 06:31:14;;;;;;;12.60;9.70;;;-0.10;88.00;;;;;;5074900;28;20455;-58
2023/03/01 06:33:41;;;;;;;13.67;10.83;;;-0.10;88.00;;;;;;5074852;28;20448;-57
2023/03/01 06:36:09;;;;;;;10.70;9.50;;;-0.10;88.00;;;;;;5074549;28;20484;-57
2023/03/01 06:38:36;;;;;;;11.13;9.63;;;-0.10;88.00;;;;;;5073822;28;20507;-57
2023/03/01 06:41:05;;;;;;;12.90;10.23;;;-0.10;88.00;;;;;;5074633;28;20472;-57
2023/03/01 06:43:31;;;;;;;13.97;10.43;;;-0.10;87.70;;;;;;5074438;28;20544;-57
2023/03/01 06:45:58;;;;;;;10.93;8.93;;;-0.10;87.80;;;;;;5074480;28;20452;-57
2023/03/01 06:48:25;;;;;;;14.67;12.33;;;-0.10;88.00;;;;;;5074169;28;20957;-57
2023/03/01 06:50:51;;;;;;;14.93;10.07;;;-0.10;88.10;;;;;;5074248;28;20464;-57
2023/03/01 06:53:18;;;;;;;10.93;9.63;;;-0.10;88.10;;;;;;5074022;28;20452;-56
2023/03/01 06:55:45;;;;;;;13.70;9.93;;;-0.10;88.20;;;;;;5074152;28;20451;-57
2023/03/01 06:58:13;;;;;;;16.63;10.60;;;-0.10;88.20;;;;;;5073974;28;20476;-57
2023/03/01 07:00:40;;;;;;;12.90;9.90;;;0.00;88.30;;;;;;5073834;28;21020;-57
2023/03/01 07:03:07;;;;;;;12.80;10.73;;;0.00;88.60;;;;;;5073895;28;20488;-57
2023/03/01 07:05:35;;;;;;;14.23;11.63;;;-0.10;88.90;;;;;;5073751;28;20502;-56
2023/03/01 07:08:02;;;;;;;12.27;10.97;;;-0.10;89.20;;;;;;5073889;28;20536;-57
2023/03/01 07:10:28;;;;;;;15.57;10.47;;;0.00;89.60;;;;;;5073956;28;20472;-57
2023/03/01 07:12:56;;;;;;;15.67;11.13;;;0.00;89.80;;;;;;5073770;28;20456;-57
2023/03/01 07:15:25;;;;;;;11.73;9.73;;;0.00;89.80;;;;;;5073425;28;20458;-57
2023/03/01 07:17:52;;;;;;;12.57;10.47;;;0.00;89.70;;;;;;5073616;28;20490;-57
2023/03/01 07:20:21;;;;;;;17.73;10.90;;;0.00;89.90;;;;;;5073600;28;20472;-57
2023/03/01 07:22:48;;;;;;;16.27;11.83;;;0.00;90.30;;;;;;5073166;28;20896;-57
2023/03/01 07:25:14;;;;;;;13.03;11.60;;;0.00;90.50;;;;;;5073612;28;20538;-56
2023/03/01 07:27:41;;;;;;;12.50;11.20;;;0.00;90.70;;;;;;5073668;28;20810;-57
2023/03/01 07:30:09;;;;;;;13.90;11.13;;;0.00;91.00;;;;;;5073524;28;20475;-57
2023/03/01 07:32:37;;;;;;;17.03;11.40;;;0.10;91.30;;;;;;5073566;28;20472;-57
2023/03/01 07:35:05;;;;;;;15.40;11.23;;;0.20;91.50;;;;;;5073472;28;20445;-57
2023/03/01 07:37:31;;;;;;;17.30;12.77;;;0.20;91.70;;;;;;5073118;28;21010;-57
2023/03/01 07:39:58;;;;;;;12.93;11.27;;;0.30;91.80;;;;;;5073375;28;20475;-57
2023/03/01 07:42:25;;;;;;;16.33;12.10;;;0.30;91.80;;;;;;5073472;28;20472;-57
2023/03/01 07:44:51;;;;;;;14.70;12.47;;;0.40;92.00;;;;;;5073357;28;20446;-57
2023/03/01 07:47:18;;;;;;;14.50;11.60;;;0.40;92.00;;;;;;5073345;28;20446;-57
2023/03/01 07:49:46;;;;;;;16.43;12.10;;;0.50;92.10;;;;;;5073224;28;20465;-57
2023/03/01 07:52:13;;;;;;;16.17;12.00;;;0.60;92.30;;;;;;5073232;28;20444;-57
2023/03/01 07:54:43;;;;;;;19.03;12.70;;;0.70;92.40;;;;;;5073264;28;20448;-57
2023/03/01 07:57:09;;;;;;;16.80;12.27;;;0.70;92.50;;;;;;5073162;28;20484;-57
2023/03/01 07:59:36;;;;;;;17.80;13.47;;;0.80;92.60;;;;;;5072897;28;20482;-57
2023/03/01 08:02:03;;;;;;;18.03;13.73;;;0.80;92.50;;;;;;5073210;28;20444;-57
2023/03/01 08:04:29;;;;;;;16.40;13.40;;;0.90;92.60;;;;;;5073123;28;20449;-57
2023/03/01 08:06:58;;;;;;;13.70;11.43;;;0.90;92.70;;;;;;5073166;28;20453;-57
2023/03/01 08:09:24;;;;;;;15.70;13.47;;;1.00;92.70;;;;;;5073110;28;20464;-57
2023/03/01 08:11:51;;;;;;;15.83;12.97;;;1.10;92.70;;;;;;5072849;28;20844;-57
2023/03/01 08:14:18;;;;;;;16.20;12.90;;;1.20;92.70;;;;;;5073069;28;20452;-57
2023/03/01 08:16:44;;;;;;;16.00;12.60;;;1.20;92.50;;;;;;5073000;28;20483;-57
2023/03/01 08:19:12;;;;;;;17.00;13.40;;;1.30;92.50;;;;;;5072674;28;20472;-57
2023/03/01 08:21:40;;;;;;;18.77;14.30;;;1.30;92.50;;;;;;5072834;28;20479;-57
2023/03/01 08:24:10;;;;;;;17.13;13.77;;;1.40;92.50;;;;;;5072936;28;20444;-57
2023/03/01 08:26:37;;;;;;;15.73;13.13;;;1.40;92.60;;;;;;5073016;28;20445;-57
2023/03/01 08:29:04;;;;;;;15.37;12.87;;;1.50;92.60;;;;;;5072924;28;20473;-57
2023/03/01 08:31:35;;;;;;;16.87;13.10;;;1.60;92.50;;;;;;5072939;28;20457;-57
2023/03/01 08:34:03;;;;;;;20.00;15.07;;;1.70;92.50;;;;;;5072906;28;20464;-57
2023/03/01 08:36:32;;;;;;;15.60;13.80;;;1.80;92.40;;;;;;5072794;28;20455;-58
2023/03/01 08:39:00;;;;;;;18.10;14.13;;;1.80;92.30;;;;;;5072759;28;20453;-57
2023/03/01 08:41:28;;;;;;;15.13;13.10;;;1.90;92.20;;;;;;5072809;28;20444;-58
2023/03/01 08:43:58;;;;;;;21.97;13.67;;;2.00;92.30;;;;;;5072786;28;20448;-57
2023/03/01 08:46:25;;;;;;;18.90;14.07;;;2.10;92.20;;;;;;5072753;28;20494;-57
2023/03/01 08:48:52;;;;;;;17.53;14.80;;;2.10;92.00;;;;;;5072718;28;20861;-57
2023/03/01 08:51:20;;;;;;;20.60;16.57;;;2.20;91.90;;;;;;5072708;28;20448;-57
2023/03/01 08:53:47;;;;;;;20.40;16.80;;;2.30;91.90;;;;;;5072665;28;20456;-56
2023/03/01 08:56:15;;;;;;;20.00;16.60;;;2.40;92.00;;;;;;5072371;28;20460;-57
2023/03/01 08:58:46;;;;;;;18.63;14.20;;;2.40;92.10;;;;;;5072587;28;20484;-58
2023/03/01 09:01:15;;;;;;;17.43;13.73;;;2.50;91.80;;;;;;5074173;28;20452;-57
2023/03/01 09:03:42;;;;;;;17.20;14.50;;;2.60;91.50;;;;;;5076377;28;20487;-57
2023/03/01 09:06:09;;;;;;;16.90;13.07;;;2.60;91.20;;;;;;5076519;28;20543;-57
2023/03/01 09:08:37;;;;;;;17.87;14.70;;;2.70;90.90;;;;;;5076377;28;20444;-57
2023/03/01 09:11:04;;;;;;;18.17;14.73;;;2.80;90.70;;;;;;5075874;28;20822;-57
2023/03/01 09:13:31;;;;;;;23.10;14.83;;;2.80;91.10;;;;;;5075980;28;20554;-57
2023/03/01 09:16:01;;;;;;;24.07;13.33;;;2.90;90.60;;;;;;5076177;28;20449;-57
2023/03/01 09:18:28;;;;;;;19.83;15.57;;;3.00;90.30;;;;;;5075947;28;20506;-57
2023/03/01 09:21:01;;;;;;;17.37;13.20;;;3.10;90.20;;;;;;5075968;28;20570;-57
2023/03/01 09:23:28;;;;;;;19.70;14.60;;;3.20;90.10;;;;;;5075969;28;20425;-57
2023/03/01 09:25:55;;;;;;;17.60;13.57;;;3.30;90.00;;;;;;5075991;28;20441;-57
2023/03/01 09:28:23;;;;;;;18.00;14.63;;;3.40;89.50;;;;;;5075505;28;20482;-56
2023/03/01 09:30:49;;;;;;;20.23;15.80;;;3.40;89.40;;;;;;5075735;28;20577;-57
2023/03/01 09:33:17;;;;;;;23.53;15.67;;;3.50;89.20;;;;;;5075803;28;20444;-57
2023/03/01 09:35:46;;;;;;;20.77;14.60;;;3.60;88.70;;;;;;5075677;28;20441;-57
2023/03/01 09:38:13;;;;;;;20.73;15.83;;;3.80;88.50;;;;;;5075632;28;20842;-57
2023/03/01 09:40:45;;;;;;;15.53;13.50;;;3.90;86.90;;;;;;5075569;28;20475;-57
2023/03/01 09:43:19;;;;;;;17.53;13.93;;;4.00;86.20;;;;;;5075541;28;20461;-57
2023/03/01 09:45:48;;;;;;;20.10;14.83;;;4.10;85.70;;;;;;5075574;28;20429;-57
2023/03/01 09:48:21;;;;;;;15.23;13.60;;;4.20;84.60;;;;;;5075486;28;20449;-58
2023/03/01 09:50:48;;;;;;;26.57;15.33;;;4.40;83.40;;;;;;5075439;28;20464;-58
2023/03/01 09:53:18;;;;;;;17.03;13.40;;;4.50;81.90;;;;;;5075346;28;20451;-57
2023/03/01 09:55:49;;;;;;;17.50;13.87;;;4.60;80.80;;;;;;5074988;28;20950;-57
2023/03/01 09:58:32;;;;;;;15.90;12.77;;;4.80;79.80;;;;;;5075213;28;20479;-57
2023/03/01 10:01:03;;;;;;;18.50;13.37;;;4.90;78.50;;;;;;5075286;28;20464;-57
2023/03/01 10:03:37;;;;;;;13.87;12.30;;;5.10;77.30;;;;;;5075231;28;20437;-57
2023/03/01 10:06:11;;;;;;;16.80;12.73;;;5.20;76.10;;;;;;5075266;28;20441;-57
2023/03/01 10:08:43;;;;;;;15.80;12.10;;;5.40;75.60;;;;;;5074858;28;20834;-57
2023/03/01 10:11:20;;;;;;;17.07;13.90;;;5.60;75.00;;;;;;5075257;28;20535;-58
2023/03/01 10:13:53;;;;;;;14.40;11.37;;;5.80;73.80;;;;;;5073989;28;20433;-58
2023/03/01 10:16:25;;;;;;;13.63;11.93;;;6.00;72.40;;;;;;5074642;28;20903;-58
2023/03/01 10:18:58;;;;;;;14.30;10.83;;;6.30;70.90;;;;;;5074794;28;20472;-58
2023/03/01 10:21:25;;;;;;;13.53;11.40;;;6.60;69.00;;;;;;5074801;28;20523;-58
2023/03/01 10:23:53;;;;;;;16.10;10.53;;;6.90;67.50;;;;;;5074790;28;20495;-58
2023/03/01 10:26:33;;;;;;;13.30;9.77;;;7.20;65.20;;;;;;5074456;28;20899;-57
2023/03/01 10:29:03;;;;;;;13.10;10.80;;;7.60;62.90;;;;;;5074653;28;20425;-57
2023/03/01 10:31:40;;;;;;;13.13;9.93;;;8.00;60.00;;;;;;5074661;28;20444;-58
2023/03/01 10:34:12;;;;;;;13.70;10.90;;;8.60;58.40;;;;;;5074606;28;20436;-58
2023/03/01 10:36:40;;;;;;;13.77;11.33;;;9.10;56.30;;;;;;5074631;28;20430;-58
2023/03/01 10:39:14;;;;;;;11.77;10.60;;;9.60;54.50;;;;;;5074327;28;20488;-58
2023/03/01 10:41:55;;;;;;;15.13;10.43;;;10.20;51.70;;;;;;5074439;28;20425;-58
2023/03/01 10:44:43;;;;;;;12.40;10.03;;;10.80;48.80;;;;;;5074089;28;20932;-58
2023/03/01 10:47:16;;;;;;;12.47;10.90;;;11.40;46.80;;;;;;5074287;28;20448;-58
2023/03/01 10:50:05;;;;;;;11.93;10.73;;;12.00;45.20;;;;;;5074278;28;20514;-58
2023/03/01 10:52:34;;;;;;;12.03;10.70;;;12.50;42.30;;;;;;5074228;28;20433;-58
2023/03/01 10:55:04;;;;;;;11.33;10.27;;;13.00;40.90;;;;;;5074297;28;20859;-58
2023/03/01 10:57:38;;;;;;;12.00;10.50;;;13.50;39.50;;;;;;5073848;28;20879;-58
2023/03/01 11:00:24;;;;;;;12.17;10.60;;;14.00;38.50;;;;;;5073906;28;20993;-59
2023/03/01 11:03:02;;;;;;;11.73;10.53;;;14.60;37.00;;;;;;5074142;28;20429;-58
2023/03/01 11:05:33;;;;;;;11.60;10.40;;;15.00;36.20;;;;;;5074041;28;20472;-59
2023/03/01 11:08:02;;;;;;;13.13;11.83;;;15.50;34.40;;;;;;5073967;28;20432;-58
2023/03/01 11:10:31;;;;;;;11.43;10.33;;;15.90;33.40;;;;;;5073835;28;20471;-58
2023/03/01 11:13:08;;;;;;;10.67;9.57;;;16.20;33.10;;;;;;5073828;28;20444;-58
2023/03/01 11:15:36;;;;;;;12.00;10.53;;;16.60;31.70;;;;;;5073619;28;20956;-59
2023/03/01 11:18:03;;;;;;;11.40;10.30;;;16.90;31.50;;;;;;5073608;28;20483;-59
2023/03/01 11:20:35;;;;;;;11.80;10.70;;;17.20;30.80;;;;;;5073321;28;20465;-58
2023/03/01 11:23:06;;;;;;;11.10;9.87;;;17.50;30.30;;;;;;5073520;28;20457;-59
2023/03/01 11:25:37;;;;;;;11.33;10.27;;;17.90;30.10;;;;;;5073627;28;20444;-59
2023/03/01 11:28:06;;;;;;;10.63;9.63;;;18.20;29.20;;;;;;5073610;28;20433;-59
2023/03/01 11:30:39;;;;;;;10.43;9.47;;;18.50;29.00;;;;;;5073149;28;21008;-59
2023/03/01 11:33:17;;;;;;;12.40;11.10;;;18.80;28.10;;;;;;5073567;28;20792;-59
2023/03/01 11:35:50;;;;;;;11.00;10.00;;;19.10;27.40;;;;;;5073511;28;20439;-58
2023/03/01 11:38:22;;;;;;;11.70;10.50;;;19.30;26.90;;;;;;5073464;28;20465;-59
2023/03/01 11:40:53;;;;;;;11.13;10.00;;;19.50;26.90;;;;;;5073350;28;21095;-59
2023/03/01 11:43:28;;;;;;;10.67;9.70;;;19.80;26.70;;;;;;5073713;28;20842;-59
2023/03/01 11:46:29;;;;;;;10.80;9.77;;;20.10;26.40;;;;;;5073558;28;20433;-59
2023/03/01 11:49:06;;;;;;;13.07;10.67;;;20.40;26.30;;;;;;5064270;28;20476;-59
2023/03/01 11:51:46;;;;;;;11.93;10.70;;;20.80;25.80;;;;;;5073364;28;20448;-59
2023/03/01 11:54:28;;;;;;;9.87;9.00;;;21.10;25.30;;;;;;5073353;28;20494;-59
2023/03/01 11:56:58;;;;;;;10.20;9.20;;;21.40;25.60;;;;;;5073345;28;20441;-59
2023/03/01 11:59:47;;;;;;;11.27;10.27;;;21.60;24.60;;;;;;5073176;28;20491;-59
2023/03/01 12:02:43;;;;;;;11.30;10.20;;;22.00;24.60;;;;;;5073305;28;20436;-58
2023/03/01 12:05:25;;;;;;;10.60;9.70;;;22.20;23.90;;;;;;5039536;28;20456;-59
2023/03/01 12:07:59;;;;;;;10.60;9.60;;;22.40;24.00;;;;;;5073200;28;20516;-59
2023/03/01 12:10:29;;;;;;;12.17;11.07;;;22.60;23.60;;;;;;5072817;28;20982;-59
2023/03/01 12:13:28;;;;;;;10.30;9.40;;;22.80;23.50;;;;;;5072863;28;20444;-59
2023/03/01 12:16:10;;;;;;;11.10;10.20;;;23.00;23.20;;;;;;5072811;28;20433;-58
2023/03/01 12:19:02;;;;;;;11.70;10.57;;;23.20;23.00;;;;;;5073131;28;20476;-59
2023/03/01 12:21:42;;;;;;;12.20;11.10;;;23.60;22.80;;;;;;5072917;28;20471;-59
2023/03/01 12:24:32;;;;;;;11.60;10.60;;;23.80;22.50;;;;;;5072733;28;20987;-59
2023/03/01 12:27:18;;;;;;;13.10;10.43;;;24.10;22.30;;;;;;5072968;28;20429;-59
2023/03/01 12:29:53;;;;;;;10.13;9.10;;;24.40;22.30;;;;;;5072909;28;20500;-59
2023/03/01 12:32:28;;;;;;;11.47;10.47;;;24.60;22.70;;;;;;5072947;28;20436;-59
2023/03/01 12:35:34;;;;;;;11.83;10.73;;;24.80;21.90;;;;;;5073494;28;20463;-59
2023/03/01 12:38:15;;;;;;;12.17;11.07;;;24.80;21.50;;;;;;5073995;28;20487;-59
2023/03/01 12:41:04;;;;;;;11.17;10.17;;;24.90;21.80;;;;;;5076663;28;20526;-59
2023/03/01 12:43:44;;;;;;;11.13;10.10;;;25.20;21.80;;;;;;5076298;28;20912;-59
2023/03/01 12:46:21;;;;;;;11.40;10.30;;;25.40;21.70;;;;;;5076478;28;20441;-59
2023/03/01 12:49:00;;;;;;;11.00;10.10;;;25.50;20.90;;;;;;5076441;28;20421;-58
2023/03/01 12:51:32;;;;;;;11.00;10.00;;;25.60;20.90;;;;;;5076564;28;20433;-59
2023/03/01 12:54:02;;;;;;;10.47;9.57;;;25.60;20.30;;;;;;5076447;28;20502;-59
2023/03/01 12:56:33;;;;;;;12.10;10.90;;;25.60;20.40;;;;;;5076379;28;20456;-59
2023/03/01 12:59:08;;;;;;;10.50;9.60;;;25.70;21.00;;;;;;5076213;28;20468;-59